createdAt,value
2022-10-23T00:01:45.547Z,13.50
2022-10-23T00:04:31.325Z,12.73
2022-10-23T00:06:59.146Z,11.90
2022-10-23T00:09:27.005Z,15.32
2022-10-23T00:11:54.876Z,17.90
2022-10-23T00:14:25.195Z,12.00
2022-10-23T00:16:53.014Z,11.57
2022-10-23T00:19:20.682Z,12.32
2022-10-23T00:21:48.593Z,16.88
2022-10-23T00:24:16.364Z,31.02
2022-10-23T00:26:44.443Z,19.52
2022-10-23T00:29:12.711Z,16.40
2022-10-23T00:31:40.587Z,11.23
2022-10-23T00:34:09.192Z,11.15
2022-10-23T00:36:37.034Z,12.20
2022-10-23T00:39:05.704Z,10.77
2022-10-23T00:41:33.775Z,11.55
2022-10-23T00:44:09.207Z,17.27
2022-10-23T00:46:39.365Z,14.32
2022-10-23T00:49:09.664Z,11.20
2022-10-23T00:54:23.454Z,11.05
2022-10-23T00:56:56.536Z,12.93
2022-10-23T00:59:25.634Z,10.27
2022-10-23T01:01:53.688Z,8.00
2022-10-23T01:04:23.428Z,19.05
2022-10-23T01:07:23.304Z,60.67
2022-10-23T01:10:19.387Z,46.75
2022-10-23T01:13:33.150Z,47.05
2022-10-23T01:16:16.320Z,21.10
2022-10-23T01:19:09.145Z,18.88
2022-10-23T01:22:03.126Z,22.20
2022-10-23T01:24:58.963Z,19.92
2022-10-23T01:28:00.556Z,33.55
2022-10-23T01:30:32.430Z,34.30
2022-10-23T01:33:17.276Z,44.45
2022-10-23T01:36:24.006Z,41.03
2022-10-23T01:39:18.050Z,71.30
2022-10-23T01:42:19.272Z,71.38
2022-10-23T01:44:55.923Z,62.85
2022-10-23T01:47:30.884Z,31.67
2022-10-23T01:50:08.757Z,40.30
2022-10-23T01:52:37.770Z,43.17
2022-10-23T01:55:10.048Z,36.60
2022-10-23T01:57:41.978Z,21.08
2022-10-23T02:00:18.411Z,16.08
2022-10-23T02:02:56.021Z,18.17
2022-10-23T02:05:32.007Z,21.00
2022-10-23T02:08:01.775Z,20.33
2022-10-23T02:13:45.183Z,53.85
2022-10-23T02:16:46.507Z,19.83
2022-10-23T02:19:33.429Z,13.98
2022-10-23T02:22:23.501Z,11.27
2022-10-23T02:25:19.393Z,11.25
2022-10-23T02:27:56.281Z,9.25
2022-10-23T02:30:32.005Z,10.70
2022-10-23T02:33:12.545Z,36.85
2022-10-23T02:35:41.418Z,21.33
2022-10-23T02:38:41.950Z,9.23
2022-10-23T02:41:43.561Z,8.45
2022-10-23T02:44:30.546Z,6.93
2022-10-23T02:47:35.692Z,7.18
2022-10-23T02:50:28.350Z,32.17
2022-10-23T02:52:56.252Z,62.20
2022-10-23T02:55:29.948Z,49.35
2022-10-23T02:58:10.481Z,21.33
2022-10-23T03:00:53.967Z,28.17
2022-10-23T03:03:33.459Z,24.83
2022-10-23T03:06:01.730Z,21.80
2022-10-23T03:08:29.725Z,32.15
2022-10-23T03:10:58.417Z,19.83
2022-10-23T03:13:28.922Z,31.63
2022-10-23T03:15:56.646Z,20.75
2022-10-23T03:18:27.462Z,9.75
2022-10-23T03:20:59.982Z,16.05
2022-10-23T03:23:28.037Z,15.80
2022-10-23T03:25:56.549Z,21.10
2022-10-23T03:28:44.523Z,14.60
2022-10-23T03:31:12.482Z,58.72
2022-10-23T03:33:40.622Z,26.75
2022-10-23T03:36:11.344Z,23.63
2022-10-23T03:38:39.011Z,20.55
2022-10-23T03:41:06.978Z,16.90
2022-10-23T03:43:34.859Z,13.82
2022-10-23T03:46:03.231Z,9.80
2022-10-23T03:48:31.968Z,11.65
2022-10-23T03:50:59.953Z,10.18
2022-10-23T03:53:27.655Z,10.57
2022-10-23T03:55:55.357Z,19.92
2022-10-23T03:58:23.144Z,11.70
2022-10-23T04:00:51.475Z,13.38
2022-10-23T04:03:19.200Z,10.82
2022-10-23T04:05:49.973Z,11.18
2022-10-23T04:08:20.090Z,7.28
2022-10-23T04:10:50.760Z,7.22
2022-10-23T04:13:21.801Z,10.10
2022-10-23T04:15:51.530Z,8.00
2022-10-23T04:18:20.133Z,11.82
2022-10-23T04:20:49.522Z,15.57
2022-10-23T04:23:17.713Z,10.63
2022-10-23T04:28:16.023Z,12.27
2022-10-23T04:30:43.698Z,10.10
2022-10-23T04:33:13.290Z,12.43
2022-10-23T04:35:41.068Z,13.18
2022-10-23T04:38:08.911Z,12.30
2022-10-23T04:40:37.648Z,11.68
2022-10-23T04:43:05.857Z,13.35
2022-10-23T04:45:38.045Z,10.25
2022-10-23T04:48:06.056Z,9.52
2022-10-23T04:50:59.248Z,13.45
2022-10-23T04:53:46.893Z,15.35
2022-10-23T04:56:31.223Z,12.65
2022-10-23T04:59:10.100Z,10.90
2022-10-23T05:01:39.620Z,10.00
2022-10-23T05:04:09.103Z,10.70
2022-10-23T05:06:56.790Z,7.20
2022-10-23T05:09:40.722Z,11.52
2022-10-23T05:12:25.564Z,9.60
2022-10-23T05:14:54.412Z,11.13
2022-10-23T05:17:35.960Z,14.45
2022-10-23T05:20:09.375Z,38.25
2022-10-23T05:22:40.733Z,32.20
2022-10-23T05:25:13.141Z,27.63
2022-10-23T05:27:45.911Z,26.48
2022-10-23T05:30:15.965Z,33.35
2022-10-23T05:32:44.999Z,22.35
2022-10-23T05:35:20.440Z,27.80
2022-10-23T05:37:53.023Z,28.23
2022-10-23T05:40:24.177Z,43.63
2022-10-23T05:42:57.936Z,42.35
2022-10-23T05:45:50.689Z,50.50
2022-10-23T05:48:35.390Z,38.42
2022-10-23T05:51:11.761Z,31.60
2022-10-23T05:53:55.768Z,21.92
2022-10-23T05:56:52.163Z,44.13
2022-10-23T05:59:29.951Z,27.88
2022-10-23T06:02:36.196Z,23.23
2022-10-23T06:05:12.689Z,22.27
2022-10-23T06:08:01.301Z,26.05
2022-10-23T06:10:29.073Z,26.23
2022-10-23T06:13:00.378Z,22.25
2022-10-23T06:15:28.163Z,20.30
2022-10-23T06:18:05.608Z,26.23
2022-10-23T06:20:38.893Z,34.40
2022-10-23T06:23:12.143Z,44.42
2022-10-23T06:26:12.579Z,36.25
2022-10-23T06:28:51.971Z,30.25
2022-10-23T06:31:20.430Z,40.97
2022-10-23T06:33:51.121Z,41.20
2022-10-23T06:36:18.987Z,36.85
2022-10-23T06:38:46.864Z,79.00
2022-10-23T06:41:19.821Z,73.80
2022-10-23T06:43:53.454Z,85.55
2022-10-23T06:46:36.495Z,82.80
2022-10-23T06:49:04.292Z,67.28
2022-10-23T06:51:36.732Z,50.03
2022-10-23T06:54:05.922Z,44.63
2022-10-23T07:10:30.370Z,14.57
2022-10-23T07:15:47.263Z,19.48
2022-10-23T07:18:20.128Z,24.40
2022-10-23T07:21:11.375Z,22.90
2022-10-23T07:23:41.001Z,20.92
2022-10-23T07:26:17.435Z,18.95
2022-10-23T07:28:48.376Z,20.05
2022-10-23T07:31:28.156Z,15.05
2022-10-23T07:34:14.487Z,17.10
2022-10-23T07:36:43.968Z,17.02
2022-10-23T07:39:12.139Z,19.40
2022-10-23T07:41:47.457Z,22.30
2022-10-23T07:44:15.641Z,45.78
2022-10-23T07:46:43.304Z,24.27
2022-10-23T07:49:11.942Z,24.83
2022-10-23T07:51:40.915Z,25.05
2022-10-23T07:54:12.385Z,23.23
2022-10-23T07:57:02.177Z,25.05
2022-10-23T07:59:48.502Z,24.65
2022-10-23T08:16:53.229Z,34.53
2022-10-23T08:19:21.127Z,36.85
2022-10-23T08:21:54.916Z,35.40
2022-10-23T08:24:23.435Z,22.00
2022-10-23T08:26:51.464Z,16.08
2022-10-23T08:29:23.554Z,17.30
2022-10-23T08:31:56.340Z,18.60
2022-10-23T08:34:59.712Z,18.35
2022-10-23T08:37:30.625Z,14.30
2022-10-23T08:39:58.914Z,19.85
2022-10-23T08:42:52.821Z,16.15
2022-10-23T08:48:37.973Z,13.55
2022-10-23T08:51:40.520Z,14.43
2022-10-23T08:54:22.442Z,17.08
2022-10-23T08:56:59.825Z,10.15
2022-10-23T08:59:41.834Z,6.80
2022-10-23T09:02:46.664Z,5.20
2022-10-23T09:05:22.520Z,5.07
2022-10-23T09:08:16.819Z,5.53
2022-10-23T09:11:25.560Z,5.38
2022-10-23T09:13:55.732Z,4.68
2022-10-23T09:17:20.970Z,4.35
2022-10-23T09:20:07.898Z,4.30
2022-10-23T09:22:35.654Z,5.50
2022-10-23T09:25:03.672Z,6.40
2022-10-23T09:27:31.430Z,6.47
2022-10-23T09:29:59.476Z,6.28
2022-10-23T09:32:38.320Z,5.57
2022-10-23T09:35:06.977Z,8.48
2022-10-23T09:37:40.030Z,5.65
2022-10-23T09:40:38.926Z,6.35
2022-10-23T09:43:27.998Z,6.22
2022-10-23T09:46:06.180Z,7.90
2022-10-23T09:48:36.747Z,16.55
2022-10-23T09:51:21.334Z,12.50
2022-10-23T09:54:00.154Z,8.52
2022-10-23T09:56:28.372Z,4.43
2022-10-23T09:59:27.814Z,3.90
2022-10-23T10:01:59.999Z,2.85
2022-10-23T10:04:50.798Z,6.05
